Arcadia, Oklahoma
Current Conditions -  °F | °C
As of 3:53 PM on Monday 26 Jan 2015 (Local Time) from KGOK Reporting Station
Clear Clear  
Wind Chill: 23°   Ceiling: Unl
Heat Index: 23°   Visibility: 10mi
Dew Point:   Wind: 17mph
Humidity: 21%   Direction: 290°WNW
Pressure: 30.01"   Gusts: 24mph
Location:  35.67°N, 97.33°W
Report Text: KGOK 262153Z AUTO 29015G21KT 10SM CLR 23/00 A3001 RMK AO2 SLP164 T02330000 $
Loading
Personal Weather Stations






























Interactive Weather Map New forecast layout! Learn more

10-Day Weather Forecast

Advertisements
Track Severe Weather on mobile